Time;durP1;ratioP1;P1;durP2;ratioP2;P2;SDS_P1;SDS_P2;PMS_P1;PMS_P2;Temp;Humidity;BMP_temperature;BMP_pressure;BME280_temperature;BME280_humidity;BME280_pressure;Samples;Min_cycle;Max_cycle;Signal;HPM_P1;HPM_P2
2023/09/01 00:01:03;;;;;;;9.20;8.80;;;;;;;12.43;92.31;100930.00;5034854;28;20196;-70
2023/09/01 00:04:02;;;;;;;10.70;10.00;;;;;;;12.43;92.37;100932.66;5022762;28;20206;-70
2023/09/01 00:06:28;;;;;;;11.83;10.93;;;;;;;12.44;92.47;100934.31;5035019;28;20254;-70
2023/09/01 00:08:55;;;;;;;10.00;9.40;;;;;;;12.43;92.52;100929.16;5034330;28;20214;-70
2023/09/01 00:11:21;;;;;;;20.40;12.27;;;;;;;12.41;92.16;100929.28;5034630;28;20188;-70
2023/09/01 00:13:48;;;;;;;14.33;11.83;;;;;;;12.36;92.67;100932.44;5034306;28;20206;-70
2023/09/01 00:16:14;;;;;;;11.20;9.63;;;;;;;12.36;92.38;100934.28;5034556;28;20223;-70
2023/09/01 00:18:41;;;;;;;10.50;9.70;;;;;;;12.36;92.66;100932.44;5034603;28;20818;-70
2023/09/01 00:21:08;;;;;;;9.90;9.37;;;;;;;12.35;92.56;100933.44;5034427;28;20725;-70
2023/09/01 00:23:35;;;;;;;8.77;8.27;;;;;;;12.36;92.39;100929.75;5034468;28;20183;-70
2023/09/01 00:26:01;;;;;;;11.23;10.40;;;;;;;12.39;92.38;100941.19;5034168;28;20184;-70
2023/09/01 00:28:28;;;;;;;10.53;9.33;;;;;;;12.35;91.95;100944.16;5034278;28;20691;-70
2023/09/01 00:30:56;;;;;;;12.93;10.63;;;;;;;12.23;91.98;100947.25;5034602;28;20167;-70
2023/09/01 00:33:26;;;;;;;9.93;8.23;;;;;;;12.18;92.18;100945.03;5032711;28;20199;-70
2023/09/01 00:35:54;;;;;;;11.30;10.57;;;;;;;12.20;92.23;100942.22;5032989;28;20593;-70
2023/09/01 00:38:21;;;;;;;11.50;9.40;;;;;;;12.19;92.40;100935.16;5032638;28;20211;-70
2023/09/01 00:40:48;;;;;;;14.53;9.77;;;;;;;12.20;92.34;100934.19;5034323;28;20215;-70
2023/09/01 00:43:16;;;;;;;9.07;8.77;;;;;;;12.20;92.20;100929.66;5034075;28;20198;-70
2023/09/01 00:45:43;;;;;;;9.00;8.50;;;;;;;12.19;92.19;100929.81;5032724;28;20202;-70
2023/09/01 00:48:12;;;;;;;9.33;8.63;;;;;;;12.19;92.22;100933.34;5031649;28;20250;-70
2023/09/01 00:50:47;;;;;;;7.60;7.37;;;;;;;12.16;92.76;100922.09;5034000;28;20255;-70
2023/09/01 00:53:14;;;;;;;6.83;6.73;;;;;;;12.14;92.28;100934.78;5034239;28;20178;-70
2023/09/01 00:55:40;;;;;;;9.57;9.00;;;;;;;12.10;92.61;100928.91;5034250;28;20183;-70
2023/09/01 00:58:08;;;;;;;12.47;11.27;;;;;;;12.06;92.52;100924.00;5032446;28;20239;-70
2023/09/01 01:00:34;;;;;;;10.10;9.47;;;;;;;12.05;92.57;100925.03;5034022;28;20208;-69
2023/09/01 01:03:06;;;;;;;9.60;8.80;;;;;;;12.03;92.41;100919.81;5033537;28;20665;-69
2023/09/01 01:05:59;;;;;;;10.63;9.83;;;;;;;12.01;92.68;100921.81;5032295;28;20186;-69
2023/09/01 01:09:00;;;;;;;9.60;8.70;;;;;;;12.02;92.47;100918.13;5032117;28;20695;-69
2023/09/01 01:11:35;;;;;;;11.00;10.07;;;;;;;12.01;92.61;100902.22;5033393;28;20208;-69
2023/09/01 01:14:11;;;;;;;11.13;10.23;;;;;;;12.01;92.92;100915.63;5033757;28;20203;-69
2023/09/01 01:16:38;;;;;;;10.93;10.10;;;;;;;12.01;92.64;100915.63;5034123;28;20267;-69
2023/09/01 01:19:20;;;;;;;10.43;9.73;;;;;;;11.95;92.55;100914.41;5033357;28;20204;-70
2023/09/01 01:21:52;;;;;;;8.70;8.17;;;;;;;11.95;92.87;100922.44;5033551;28;20187;-70
2023/09/01 01:24:18;;;;;;;8.50;7.77;;;;;;;11.98;92.91;100923.97;5033565;28;20172;-70
2023/09/01 01:26:45;;;;;;;8.50;7.83;;;;;;;12.01;93.09;100921.81;5031918;28;20195;-70
2023/09/01 01:29:11;;;;;;;10.47;9.77;;;;;;;12.02;92.97;100907.41;5033114;28;20207;-70
2023/09/01 01:31:38;;;;;;;10.37;9.73;;;;;;;12.01;92.99;100910.28;5033159;28;20680;-70
2023/09/01 01:34:17;;;;;;;8.67;8.17;;;;;;;12.01;92.77;100913.75;5031861;28;20266;-70
2023/09/01 01:36:56;;;;;;;7.43;7.03;;;;;;;12.00;92.80;100904.06;5033698;28;20195;-70
2023/09/01 01:39:28;;;;;;;9.80;9.20;;;;;;;11.98;92.71;100906.03;5033156;28;20643;-70
2023/09/01 01:41:59;;;;;;;8.57;7.77;;;;;;;11.97;92.82;100907.03;5031800;28;20227;-70
2023/09/01 01:44:31;;;;;;;8.30;8.00;;;;;;;11.97;92.94;100907.03;5033358;28;20538;-70
2023/09/01 01:46:58;;;;;;;12.80;10.43;;;;;;;11.98;92.78;100911.41;5031810;28;20279;-70
2023/09/01 01:49:27;;;;;;;9.63;8.57;;;;;;;12.00;93.18;100913.94;5031635;28;20218;-70
2023/09/01 01:51:54;;;;;;;8.43;7.97;;;;;;;12.00;92.68;100922.81;5033219;28;20191;-70
2023/09/01 01:54:20;;;;;;;8.83;8.40;;;;;;;11.99;92.91;100913.09;5032918;28;20715;-70
2023/09/01 01:56:47;;;;;;;8.67;7.83;;;;;;;11.99;92.77;100907.75;5031642;28;20199;-70
2023/09/01 01:59:13;;;;;;;8.33;7.97;;;;;;;11.99;92.82;100917.59;5033847;28;20218;-70
2023/09/01 02:01:40;;;;;;;7.93;7.53;;;;;;;11.99;93.03;100915.78;5035504;28;20216;-70
2023/09/01 02:04:06;;;;;;;7.40;7.10;;;;;;;11.97;92.81;100915.06;5035527;28;20200;-70
2023/09/01 02:06:33;;;;;;;7.33;7.00;;;;;;;11.93;92.87;100903.00;5037021;28;20564;-70
2023/09/01 02:08:59;;;;;;;10.30;9.63;;;;;;;11.90;93.11;100903.31;5037211;28;20208;-70
2023/09/01 02:11:27;;;;;;;8.33;7.70;;;;;;;11.87;92.95;100899.13;5036925;28;20191;-70
2023/09/01 02:13:53;;;;;;;7.33;7.03;;;;;;;11.86;93.14;100892.06;5036777;28;20314;-70
2023/09/01 02:16:19;;;;;;;8.60;8.00;;;;;;;11.86;93.17;100891.22;5036571;28;20184;-70
2023/09/01 02:18:46;;;;;;;11.63;8.20;;;;;;;11.85;93.00;100901.09;5035200;28;20732;-70
2023/09/01 02:21:19;;;;;;;9.00;8.13;;;;;;;11.85;92.91;100901.09;5036385;28;20199;-70
2023/09/01 02:23:49;;;;;;;7.47;7.17;;;;;;;11.86;93.02;100902.78;5036475;28;20176;-70
2023/09/01 02:26:20;;;;;;;7.27;6.97;;;;;;;11.84;92.86;100904.75;5035136;28;20195;-70
2023/09/01 02:28:47;;;;;;;7.40;7.07;;;;;;;11.84;93.29;100901.25;5034993;28;20211;-70
2023/09/01 02:31:14;;;;;;;10.07;9.27;;;;;;;11.84;92.41;100906.59;5036840;28;20196;-70
2023/09/01 02:33:42;;;;;;;8.13;7.53;;;;;;;11.81;93.09;100905.09;5035806;28;20187;-70
2023/09/01 02:36:35;;;;;;;7.83;6.93;;;;;;;11.83;92.90;100921.84;5036767;28;20188;-70
2023/09/01 02:39:06;;;;;;;8.70;8.20;;;;;;;11.86;93.04;100923.38;5034849;28;20204;-70
2023/09/01 02:41:33;;;;;;;7.57;7.13;;;;;;;11.86;92.98;100920.69;5036339;28;20204;-70
2023/09/01 02:43:59;;;;;;;7.33;6.67;;;;;;;11.87;92.97;100923.22;5036629;28;20655;-70
2023/09/01 02:46:26;;;;;;;7.57;7.17;;;;;;;11.86;93.05;100918.84;5035965;28;20195;-70
2023/09/01 02:48:52;;;;;;;7.47;7.17;;;;;;;11.87;93.06;100914.34;5035840;28;20204;-70
2023/09/01 02:51:19;;;;;;;7.03;6.70;;;;;;;11.87;93.01;100919.72;5034620;28;20664;-70
2023/09/01 02:53:46;;;;;;;7.57;6.80;;;;;;;11.85;92.85;100919.00;5034704;28;20276;-69
2023/09/01 02:56:13;;;;;;;6.37;6.07;;;;;;;11.84;92.86;100925.34;5034869;28;20218;-69
2023/09/01 02:58:39;;;;;;;8.10;7.53;;;;;;;11.83;92.70;100918.34;5034491;28;20631;-70
2023/09/01 03:01:10;;;;;;;8.73;8.10;;;;;;;11.79;92.96;100925.84;5035679;28;20286;-70
2023/09/01 03:03:39;;;;;;;7.00;6.73;;;;;;;11.77;93.11;100926.97;5034505;28;20184;-70
2023/09/01 03:06:08;;;;;;;8.20;7.50;;;;;;;11.76;92.83;100928.81;5034399;28;20204;-70
2023/09/01 03:08:35;;;;;;;6.90;6.70;;;;;;;11.75;92.86;100926.31;5036039;28;20215;-70
2023/09/01 03:11:03;;;;;;;8.17;7.73;;;;;;;11.75;92.94;100923.63;5034805;28;20180;-70
2023/09/01 03:13:30;;;;;;;9.10;7.97;;;;;;;11.74;93.05;100925.47;5034293;28;20294;-70
2023/09/01 03:15:57;;;;;;;9.17;8.00;;;;;;;11.74;93.03;100914.75;5034211;28;20192;-70
2023/09/01 03:18:24;;;;;;;8.23;7.50;;;;;;;11.74;92.95;100914.75;5034078;28;20216;-70
2023/09/01 03:20:55;;;;;;;8.43;8.07;;;;;;;11.71;93.11;100914.19;5034049;28;20212;-70
2023/09/01 03:23:22;;;;;;;8.10;7.50;;;;;;;11.71;92.99;100915.00;5034860;28;20192;-70
2023/09/01 03:25:56;;;;;;;8.87;8.00;;;;;;;11.74;93.13;100906.72;5035570;28;20230;-70
2023/09/01 03:28:24;;;;;;;7.97;7.30;;;;;;;11.77;93.30;100916.25;5035498;28;20203;-70
2023/09/01 03:30:51;;;;;;;8.47;7.87;;;;;;;11.79;93.14;100917.81;5033907;28;20227;-70
2023/09/01 03:33:19;;;;;;;8.00;7.60;;;;;;;11.82;93.19;100924.69;5033901;28;20654;-70
2023/09/01 03:35:45;;;;;;;7.10;6.80;;;;;;;11.84;93.28;100923.50;5035669;28;20659;-70
2023/09/01 03:38:12;;;;;;;8.20;7.60;;;;;;;11.85;93.17;100919.84;5034009;28;20313;-70
2023/09/01 03:40:39;;;;;;;8.30;7.50;;;;;;;11.88;93.24;100921.41;5033881;28;20208;-70
2023/09/01 03:43:09;;;;;;;8.03;7.33;;;;;;;11.89;93.62;100918.53;5035229;28;20202;-70
2023/09/01 03:45:36;;;;;;;7.50;7.20;;;;;;;11.90;93.42;100916.72;5033960;28;20287;-70
2023/09/01 03:48:03;;;;;;;7.63;7.23;;;;;;;11.93;93.35;100918.22;5033537;28;20219;-70
2023/09/01 03:50:33;;;;;;;7.93;7.43;;;;;;;11.96;93.49;100913.41;5033591;28;20211;-70
2023/09/01 03:53:00;;;;;;;7.10;6.80;;;;;;;11.96;93.44;100907.22;5033541;28;20192;-70
2023/09/01 03:55:26;;;;;;;8.43;7.40;;;;;;;11.97;93.36;100906.19;5033447;28;20664;-70
2023/09/01 03:57:53;;;;;;;9.83;8.80;;;;;;;11.94;93.53;100902.00;5034930;28;20180;-70
2023/09/01 04:00:20;;;;;;;15.07;9.30;;;;;;;11.96;93.42;100896.50;5034553;28;20200;-70
2023/09/01 04:02:48;;;;;;;10.23;8.13;;;;;;;11.95;93.74;100882.25;5034555;28;20238;-70
2023/09/01 04:05:14;;;;;;;8.77;8.07;;;;;;;11.98;93.59;100875.72;5034769;28;20192;-69
2023/09/01 04:07:41;;;;;;;12.17;9.40;;;;;;;11.97;93.54;100876.72;5034592;28;20192;-70
2023/09/01 04:10:07;;;;;;;10.90;8.57;;;;;;;11.96;93.37;100878.59;5034723;28;20551;-70
2023/09/01 04:12:34;;;;;;;8.93;8.10;;;;;;;11.95;93.48;100874.22;5032964;28;20656;-69
2023/09/01 04:15:01;;;;;;;10.17;9.33;;;;;;;11.94;93.78;100879.72;5034301;28;20238;-69
2023/09/01 04:17:27;;;;;;;9.43;8.47;;;;;;;11.91;93.79;100875.53;5033028;28;20278;-69
2023/09/01 04:19:54;;;;;;;9.43;8.67;;;;;;;11.90;93.80;100871.16;5032888;28;20216;-69
2023/09/01 04:22:20;;;;;;;8.77;8.00;;;;;;;11.92;93.80;100887.09;5032990;28;20214;-69
2023/09/01 04:24:47;;;;;;;7.40;6.80;;;;;;;11.93;93.79;100880.72;5034481;28;20176;-70
2023/09/01 04:27:13;;;;;;;8.53;8.13;;;;;;;11.94;93.68;100879.72;5033371;28;20196;-69
2023/09/01 04:29:41;;;;;;;7.67;7.47;;;;;;;11.97;93.71;100882.06;5032695;28;20692;-69
2023/09/01 04:32:23;;;;;;;10.67;8.20;;;;;;;11.97;94.03;100890.97;5033068;28;20655;-69
2023/09/01 04:34:49;;;;;;;8.77;7.40;;;;;;;11.95;93.71;100884.09;5032716;28;20229;-69
2023/09/01 04:37:16;;;;;;;8.73;8.37;;;;;;;11.94;93.67;100882.41;5033165;28;20608;-69
2023/09/01 04:39:43;;;;;;;14.20;8.80;;;;;;;11.94;93.88;100885.94;5032524;28;20215;-69
2023/09/01 04:42:09;;;;;;;8.43;7.77;;;;;;;11.96;93.88;100888.47;5033764;28;20203;-69
2023/09/01 04:44:36;;;;;;;9.10;8.20;;;;;;;11.96;93.91;100891.97;5032545;28;20273;-69
2023/09/01 04:47:03;;;;;;;9.00;8.10;;;;;;;11.97;93.73;100888.28;5034024;28;20210;-69
2023/09/01 04:49:30;;;;;;;9.33;8.60;;;;;;;12.02;93.73;100879.78;5032701;28;20227;-69
2023/09/01 04:51:57;;;;;;;9.07;8.37;;;;;;;12.00;93.71;100873.75;5032652;28;20200;-69
2023/09/01 04:54:24;;;;;;;9.37;8.73;;;;;;;12.01;93.96;100878.94;5032375;28;20202;-69
2023/09/01 04:56:50;;;;;;;11.13;7.70;;;;;;;11.99;93.68;100880.94;5032333;28;20318;-69
2023/09/01 04:59:17;;;;;;;8.23;7.63;;;;;;;11.99;93.94;100888.13;5032253;28;20222;-69
2023/09/01 05:01:44;;;;;;;9.93;8.63;;;;;;;12.01;94.00;100878.13;5032276;28;20306;-69
2023/09/01 05:04:10;;;;;;;8.50;7.83;;;;;;;12.01;93.90;100880.78;5033483;28;20190;-69
2023/09/01 05:06:37;;;;;;;7.50;7.10;;;;;;;12.01;93.78;100881.59;5032159;28;20206;-69
2023/09/01 05:09:03;;;;;;;9.83;8.23;;;;;;;12.08;93.90;100884.53;5032268;28;20214;-69
2023/09/01 05:11:30;;;;;;;9.67;8.90;;;;;;;12.05;93.73;100874.94;5032103;28;20576;-69
2023/09/01 05:13:56;;;;;;;11.50;9.60;;;;;;;12.04;94.03;100877.78;5033386;28;20214;-69
2023/09/01 05:16:23;;;;;;;10.17;9.53;;;;;;;12.02;93.97;100875.25;5033327;28;20195;-69
2023/09/01 05:18:49;;;;;;;9.10;8.60;;;;;;;12.05;94.08;100882.97;5032228;28;20717;-70
2023/09/01 05:21:16;;;;;;;9.00;8.53;;;;;;;12.09;94.29;100891.56;5032196;28;20217;-70
2023/09/01 05:23:43;;;;;;;8.53;8.07;;;;;;;12.09;93.93;100896.94;5031949;28;20261;-69
2023/09/01 05:26:10;;;;;;;7.53;6.90;;;;;;;12.13;93.93;100900.97;5033707;28;20183;-69
2023/09/01 05:28:36;;;;;;;7.63;7.33;;;;;;;12.18;94.01;100907.53;5031840;28;20220;-70
2023/09/01 05:31:03;;;;;;;11.40;9.13;;;;;;;12.16;94.17;100909.53;5033180;28;20203;-70
2023/09/01 05:33:33;;;;;;;8.53;8.03;;;;;;;12.18;94.15;100907.53;5032318;28;20200;-69
2023/09/01 05:36:00;;;;;;;8.63;7.93;;;;;;;12.21;94.03;100912.59;5031851;28;20206;-69
2023/09/01 05:38:27;;;;;;;8.97;8.37;;;;;;;12.24;93.80;100909.59;5031763;28;20223;-69
2023/09/01 05:41:03;;;;;;;8.23;7.83;;;;;;;12.27;94.37;100911.09;5031750;28;20222;-69
2023/09/01 05:43:30;;;;;;;8.70;8.23;;;;;;;12.24;94.39;100911.41;5031776;28;20573;-69
2023/09/01 05:45:58;;;;;;;10.10;8.80;;;;;;;12.27;94.03;100916.47;5031708;28;20191;-69
2023/09/01 05:48:26;;;;;;;9.03;8.40;;;;;;;12.27;94.22;100916.47;5031955;28;20266;-69
2023/09/01 05:50:52;;;;;;;8.60;8.07;;;;;;;12.29;94.47;100918.00;5031713;28;20190;-69
2023/09/01 05:53:19;;;;;;;12.43;9.23;;;;;;;12.32;94.36;100909.63;5031642;28;20200;-69
2023/09/01 05:55:46;;;;;;;9.27;8.50;;;;;;;12.33;94.29;100905.13;5032935;28;20198;-69
2023/09/01 05:58:12;;;;;;;13.03;8.77;;;;;;;12.33;94.45;100899.75;5032860;28;20204;-69
2023/09/01 06:00:40;;;;;;;10.50;9.80;;;;;;;12.38;94.68;100891.25;5033057;28;20203;-69
2023/09/01 06:03:06;;;;;;;14.00;9.10;;;;;;;12.43;94.52;100887.09;5032856;28;20188;-69
2023/09/01 06:05:33;;;;;;;10.53;9.73;;;;;;;12.43;94.54;100894.28;5033040;28;20184;-69
2023/09/01 06:07:59;;;;;;;12.80;8.50;;;;;;;12.48;94.46;100894.63;5032983;28;20222;-70
2023/09/01 06:10:26;;;;;;;9.03;8.40;;;;;;;12.57;94.84;100890.97;5033045;28;20199;-69
2023/09/01 06:12:53;;;;;;;9.77;8.93;;;;;;;12.62;94.71;100894.03;5032896;28;20195;-69
2023/09/01 06:15:20;;;;;;;10.60;9.67;;;;;;;12.67;94.83;100891.72;5032960;28;20196;-69
2023/09/01 06:17:46;;;;;;;10.13;9.33;;;;;;;12.73;94.82;100894.59;5032905;28;20198;-70
2023/09/01 06:20:13;;;;;;;10.90;9.90;;;;;;;12.78;94.87;100903.00;5032957;28;20188;-69
2023/09/01 06:22:45;;;;;;;8.67;8.10;;;;;;;12.85;95.01;100905.88;5033009;28;20739;-69
2023/09/01 06:25:12;;;;;;;9.10;8.17;;;;;;;12.89;94.81;100911.75;5032691;28;20190;-69
2023/09/01 06:27:38;;;;;;;9.40;8.90;;;;;;;12.94;94.60;100904.06;5032549;28;20192;-70
2023/09/01 06:30:06;;;;;;;12.53;9.40;;;;;;;12.99;94.91;100912.44;5033199;28;20323;-70
2023/09/01 06:32:33;;;;;;;9.00;8.37;;;;;;;13.03;94.73;100900.38;5032650;28;20192;-70
2023/09/01 06:35:00;;;;;;;9.50;8.73;;;;;;;13.07;94.80;100912.50;5032584;28;20212;-69
2023/09/01 06:37:26;;;;;;;11.13;8.83;;;;;;;13.10;94.84;100912.16;5032786;28;20556;-69
2023/09/01 06:39:53;;;;;;;11.63;7.60;;;;;;;13.15;94.87;100929.47;5032455;28;20207;-70
2023/09/01 06:42:19;;;;;;;8.63;8.20;;;;;;;13.19;94.65;100921.97;5032483;28;20237;-70
2023/09/01 06:44:46;;;;;;;7.80;7.13;;;;;;;13.20;95.08;100916.41;5032783;28;20202;-70
2023/09/01 06:47:12;;;;;;;9.50;8.10;;;;;;;13.23;94.99;100926.00;5035791;28;20656;-69
2023/09/01 06:49:39;;;;;;;10.30;9.43;;;;;;;13.25;95.07;100921.28;5036183;28;20216;-69
2023/09/01 06:52:05;;;;;;;12.90;9.90;;;;;;;13.30;94.72;100910.06;5035960;28;20192;-69
2023/09/01 06:54:32;;;;;;;10.33;9.63;;;;;;;13.36;94.74;100898.69;5035896;28;20237;-69
2023/09/01 06:56:58;;;;;;;10.63;9.70;;;;;;;13.36;94.76;100896.84;5036137;28;20199;-69
2023/09/01 06:59:25;;;;;;;15.10;9.90;;;;;;;13.43;94.54;100897.00;5036024;28;20211;-69
2023/09/01 07:01:51;;;;;;;10.77;9.90;;;;;;;13.47;94.66;100903.72;5036224;28;20215;-69
2023/09/01 07:04:18;;;;;;;10.57;9.53;;;;;;;13.53;95.00;100900.38;5035995;28;20192;-69
2023/09/01 07:06:44;;;;;;;9.73;9.33;;;;;;;13.56;95.01;100900.03;5036178;28;20188;-69
2023/09/01 07:09:11;;;;;;;14.07;10.63;;;;;;;13.58;94.82;100903.38;5035564;28;20208;-69
2023/09/01 07:11:37;;;;;;;17.33;10.40;;;;;;;13.58;95.05;100885.41;5035840;28;20211;-69
2023/09/01 07:14:04;;;;;;;11.13;10.30;;;;;;;13.65;95.01;100885.59;5035363;28;20183;-69
2023/09/01 07:16:30;;;;;;;11.20;10.17;;;;;;;13.70;94.80;100881.41;5035999;28;20196;-69
2023/09/01 07:18:57;;;;;;;10.70;9.87;;;;;;;13.72;94.79;100890.13;5035893;28;20567;-69
2023/09/01 07:21:23;;;;;;;11.40;10.10;;;;;;;13.78;94.93;100904.75;5035560;28;20218;-69
2023/09/01 07:23:50;;;;;;;10.43;9.50;;;;;;;13.84;95.29;100906.75;5035343;28;20187;-69
2023/09/01 07:26:17;;;;;;;11.30;10.33;;;;;;;13.90;94.78;100900.72;5035813;28;20215;-69
2023/09/01 07:28:43;;;;;;;11.37;10.27;;;;;;;13.96;94.82;100900.03;5035704;28;20258;-70
2023/09/01 07:31:13;;;;;;;10.73;9.93;;;;;;;14.02;94.82;100888.59;5035502;28;20660;-69
2023/09/01 07:33:42;;;;;;;10.43;9.23;;;;;;;14.10;95.04;100879.69;5035140;28;20206;-69
2023/09/01 07:36:10;;;;;;;16.20;10.77;;;;;;;14.13;95.10;100879.38;5035124;28;20180;-69
2023/09/01 07:38:37;;;;;;;14.60;10.63;;;;;;;14.18;95.02;100877.81;5035053;28;20734;-69
2023/09/01 07:41:04;;;;;;;11.37;10.27;;;;;;;14.26;95.04;100885.03;5034944;28;20553;-69
2023/09/01 07:43:31;;;;;;;12.73;10.23;;;;;;;14.36;95.03;100885.72;5035258;28;20188;-69
2023/09/01 07:45:57;;;;;;;10.37;9.67;;;;;;;14.42;95.24;100887.72;5034916;28;20198;-69
2023/09/01 07:48:24;;;;;;;11.30;10.37;;;;;;;14.47;95.09;100887.22;5035057;28;20266;-70
2023/09/01 07:50:51;;;;;;;17.03;10.43;;;;;;;14.50;95.22;100894.94;5034812;28;20210;-69
2023/09/01 07:53:17;;;;;;;10.07;9.20;;;;;;;14.52;94.95;100896.44;5034591;28;20195;-69
2023/09/01 07:55:44;;;;;;;12.30;11.30;;;;;;;14.57;94.91;100899.44;5035252;28;20215;-69
2023/09/01 07:58:10;;;;;;;11.43;10.33;;;;;;;14.59;95.11;100902.81;5034377;28;20219;-70
2023/09/01 08:00:37;;;;;;;13.77;10.03;;;;;;;14.64;95.25;100903.09;5034685;28;20196;-70
2023/09/01 08:03:05;;;;;;;11.77;10.37;;;;;;;14.65;95.20;100893.19;5034757;28;20679;-69
2023/09/01 08:05:32;;;;;;;11.07;9.97;;;;;;;14.72;95.15;100887.97;5034557;28;20195;-69
2023/09/01 08:07:59;;;;;;;10.17;9.37;;;;;;;14.77;95.10;100899.03;5034668;28;20207;-70
2023/09/01 08:10:25;;;;;;;10.23;9.40;;;;;;;14.82;95.11;100893.97;5034973;28;20668;-69
2023/09/01 08:12:52;;;;;;;9.13;8.37;;;;;;;14.86;95.08;100897.97;5034410;28;20191;-69
2023/09/01 08:15:18;;;;;;;15.00;9.43;;;;;;;14.88;95.11;100898.66;5034556;28;20188;-69
2023/09/01 08:17:45;;;;;;;9.93;8.97;;;;;;;14.95;94.91;100897.78;5034543;28;20575;-70
2023/09/01 08:20:12;;;;;;;9.33;8.73;;;;;;;14.99;95.02;100906.31;5034882;28;20176;-70
2023/09/01 08:22:40;;;;;;;13.77;10.10;;;;;;;15.02;94.91;100903.31;5034480;28;20239;-69
2023/09/01 08:25:07;;;;;;;9.80;8.90;;;;;;;15.03;94.77;100907.66;5034271;28;20173;-69
2023/09/01 08:27:33;;;;;;;11.80;9.97;;;;;;;15.07;94.83;100907.13;5034497;28;20219;-70
2023/09/01 08:30:00;;;;;;;10.83;9.80;;;;;;;15.10;95.06;100908.66;5034511;28;20761;-70
2023/09/01 08:32:27;;;;;;;8.47;7.77;;;;;;;15.14;94.92;100901.06;5034416;28;20172;-70
2023/09/01 08:34:54;;;;;;;10.07;9.17;;;;;;;15.20;95.17;100906.56;5034290;28;20540;-70
2023/09/01 08:37:27;;;;;;;9.53;9.13;;;;;;;15.23;94.99;100908.06;5034263;28;20180;-70
2023/09/01 08:40:11;;;;;;;8.97;8.43;;;;;;;15.31;95.01;100908.03;5034288;28;20218;-70
2023/09/01 08:42:46;;;;;;;9.63;8.83;;;;;;;15.36;94.99;100909.16;5033901;28;20202;-69
2023/09/01 08:45:19;;;;;;;13.27;8.97;;;;;;;15.39;95.01;100902.59;5034229;28;20167;-69
2023/09/01 08:47:47;;;;;;;8.27;7.80;;;;;;;15.48;94.94;100907.75;5034010;28;20253;-70
2023/09/01 08:50:16;;;;;;;7.50;7.00;;;;;;;15.53;94.74;100899.97;5033767;28;20271;-70
2023/09/01 08:52:46;;;;;;;7.37;6.73;;;;;;;15.57;94.75;100899.63;5033679;28;20195;-70
2023/09/01 08:55:13;;;;;;;7.10;6.53;;;;;;;15.65;94.72;100907.66;5033993;28;20188;-70
2023/09/01 08:57:40;;;;;;;5.07;4.70;;;;;;;15.68;94.38;100916.22;5033512;28;20660;-70
2023/09/01 09:00:08;;;;;;;4.53;4.30;;;;;;;15.72;94.31;100922.91;5034074;28;20191;-69
2023/09/01 09:02:41;;;;;;;4.77;4.40;;;;;;;15.73;94.18;100915.69;5033707;28;20214;-69
2023/09/01 09:05:29;;;;;;;4.80;4.30;;;;;;;15.72;93.83;100919.38;5034074;28;20180;-69
2023/09/01 09:07:57;;;;;;;3.87;3.77;;;;;;;15.73;93.84;100921.06;5033343;28;20639;-70
2023/09/01 09:10:42;;;;;;;4.47;4.17;;;;;;;15.73;93.50;100929.16;5033736;28;20570;-69
2023/09/01 09:13:28;;;;;;;4.50;4.40;;;;;;;15.71;93.17;100926.63;5033543;28;20542;-69
2023/09/01 09:16:04;;;;;;;4.80;4.60;;;;;;;15.77;93.28;100925.91;5034215;28;20186;-69
2023/09/01 09:18:31;;;;;;;4.93;4.33;;;;;;;15.77;93.25;100935.84;5033488;28;20249;-70
2023/09/01 09:20:58;;;;;;;4.10;3.73;;;;;;;15.80;92.78;100943.56;5033535;28;20198;-70
2023/09/01 09:23:44;;;;;;;4.73;4.23;;;;;;;15.80;92.99;100938.19;5033126;28;20211;-70
2023/09/01 09:26:12;;;;;;;5.53;5.43;;;;;;;15.78;92.99;100935.69;5033542;28;20180;-70
2023/09/01 09:28:39;;;;;;;11.23;8.23;;;;;;;15.78;92.44;100942.94;5033126;28;20215;-71
2023/09/01 09:31:06;;;;;;;5.87;5.37;;;;;;;15.77;92.82;100936.69;5033156;28;20216;-70
2023/09/01 09:33:33;;;;;;;5.10;5.00;;;;;;;15.79;92.81;100937.34;5033140;28;20195;-70
2023/09/01 09:36:00;;;;;;;6.13;5.80;;;;;;;15.79;92.92;100945.44;5033194;28;20168;-70
2023/09/01 09:38:40;;;;;;;5.00;4.73;;;;;;;15.80;92.92;100936.34;5033285;28;20364;-71
2023/09/01 09:41:07;;;;;;;4.70;4.60;;;;;;;15.81;92.88;100942.56;5033411;28;20180;-71
2023/09/01 09:43:48;;;;;;;5.03;4.67;;;;;;;15.82;92.71;100944.25;5033031;28;20207;-71
2023/09/01 09:46:16;;;;;;;4.00;3.87;;;;;;;15.82;92.85;100941.56;5033341;28;20187;-71
2023/09/01 09:48:43;;;;;;;5.00;4.60;;;;;;;15.82;92.86;100942.41;5032950;28;20211;-71
2023/09/01 09:51:11;;;;;;;4.93;4.83;;;;;;;15.81;92.71;100938.00;5033479;28;20202;-71
2023/09/01 09:53:39;;;;;;;4.47;4.37;;;;;;;15.80;92.73;100928.25;5033498;28;20187;-71
2023/09/01 09:56:30;;;;;;;5.23;4.90;;;;;;;15.79;92.74;100931.09;5033598;28;20226;-71
2023/09/01 09:59:12;;;;;;;4.80;4.47;;;;;;;15.78;92.79;100926.75;5032882;28;20208;-72
2023/09/01 10:01:39;;;;;;;6.23;3.97;;;;;;;15.76;92.86;100926.94;5033079;28;20592;-72
2023/09/01 10:04:07;;;;;;;4.57;4.47;;;;;;;15.77;92.69;100935.84;5033119;28;20238;-72
2023/09/01 10:06:35;;;;;;;3.73;3.63;;;;;;;15.77;93.16;100934.00;5032923;28;20188;-72
2023/09/01 10:09:05;;;;;;;4.20;4.03;;;;;;;15.76;92.95;100934.16;5032720;28;20200;-72
2023/09/01 10:11:32;;;;;;;4.67;4.57;;;;;;;15.75;93.08;100936.03;5033391;28;20182;-72
2023/09/01 10:13:59;;;;;;;4.17;4.17;;;;;;;15.79;93.21;100936.50;5032959;28;20663;-72
2023/09/01 10:16:27;;;;;;;5.17;5.13;;;;;;;15.80;93.18;100941.72;5033069;28;20188;-72
2023/09/01 10:18:54;;;;;;;5.50;4.87;;;;;;;15.82;93.35;100944.25;5032783;28;20208;-72
2023/09/01 10:21:21;;;;;;;5.33;5.13;;;;;;;15.82;93.21;100949.63;5036465;28;20188;-72
2023/09/01 10:23:48;;;;;;;5.13;5.03;;;;;;;15.80;93.20;100951.66;5036718;28;20239;-72
2023/09/01 10:26:24;;;;;;;5.87;5.47;;;;;;;15.80;93.31;100947.13;5036467;28;20188;-72
2023/09/01 10:28:52;;;;;;;4.97;4.87;;;;;;;15.80;93.35;100952.50;5036402;28;20208;-73
2023/09/01 10:31:23;;;;;;;4.70;4.60;;;;;;;15.82;93.41;100955.03;5036404;28;20200;-72
2023/09/01 10:34:07;;;;;;;6.97;5.27;;;;;;;15.85;93.45;100952.81;5036615;28;20227;-72
2023/09/01 10:36:35;;;;;;;10.03;5.83;;;;;;;15.86;93.43;100951.81;5036840;28;20548;-72
2023/09/01 10:39:19;;;;;;;5.20;5.00;;;;;;;15.87;93.52;100956.16;5036151;28;20204;-73
2023/09/01 10:41:53;;;;;;;5.23;5.13;;;;;;;15.89;93.48;100947.88;5036925;28;20523;-73
2023/09/01 10:44:21;;;;;;;5.93;5.83;;;;;;;15.92;93.82;100955.59;5036416;28;20169;-73
2023/09/01 10:46:49;;;;;;;6.33;5.90;;;;;;;15.92;93.92;100944.81;5036242;28;20192;-73
2023/09/01 10:49:16;;;;;;;6.20;5.73;;;;;;;15.97;93.73;100950.53;5036490;28;20208;-73
2023/09/01 10:51:43;;;;;;;5.60;5.40;;;;;;;15.97;93.94;100951.38;5035934;28;20191;-73
2023/09/01 10:54:16;;;;;;;6.80;6.43;;;;;;;16.00;93.89;100944.75;5036197;28;20183;-73
2023/09/01 10:56:57;;;;;;;5.90;5.80;;;;;;;16.02;93.91;100941.88;5035887;28;20176;-73
2023/09/01 10:59:35;;;;;;;6.27;5.97;;;;;;;15.99;93.99;100935.84;5035747;28;20749;-73
2023/09/01 11:02:22;;;;;;;6.30;6.00;;;;;;;15.99;94.17;100937.72;5035732;28;20550;-73
2023/09/01 11:04:49;;;;;;;4.87;4.63;;;;;;;16.02;94.46;100937.34;5035707;28;20719;-73
2023/09/01 11:07:16;;;;;;;4.83;4.63;;;;;;;16.03;94.25;100936.31;5035692;28;20196;-73
2023/09/01 11:09:42;;;;;;;4.93;4.73;;;;;;;16.06;94.42;100935.94;5036064;28;20227;-73
2023/09/01 11:12:12;;;;;;;5.20;4.80;;;;;;;16.09;94.44;100935.56;5034198;28;20199;-73
2023/09/01 11:14:56;;;;;;;5.40;5.30;;;;;;;16.10;94.15;100934.56;5036151;28;20195;-73
2023/09/01 11:17:40;;;;;;;5.97;5.57;;;;;;;16.12;94.36;100939.78;5035571;28;20179;-73
2023/09/01 11:20:10;;;;;;;6.00;5.33;;;;;;;16.15;94.51;100928.63;5036262;28;20629;-73
2023/09/01 11:22:38;;;;;;;4.50;4.30;;;;;;;16.18;94.50;100928.25;5035390;28;20203;-73
2023/09/01 11:25:07;;;;;;;4.93;4.80;;;;;;;16.22;94.51;100927.69;5035326;28;20202;-73
2023/09/01 11:27:34;;;;;;;7.17;4.80;;;;;;;16.23;94.75;100940.19;5035298;28;20188;-73
2023/09/01 11:30:03;;;;;;;4.70;4.33;;;;;;;16.22;94.39;100938.50;5035191;28;20218;-73